createdAt,value
2022-10-25T00:00:47.420Z,20.98
2022-10-25T00:03:14.588Z,23.50
2022-10-25T00:05:41.980Z,21.40
2022-10-25T00:08:09.253Z,12.90
2022-10-25T00:10:36.437Z,15.73
2022-10-25T00:13:03.660Z,16.20
2022-10-25T00:15:30.798Z,14.32
2022-10-25T00:17:57.978Z,13.18
2022-10-25T00:20:25.190Z,12.50
2022-10-25T00:22:52.378Z,13.40
2022-10-25T00:25:19.561Z,12.38
2022-10-25T00:27:46.742Z,13.65
2022-10-25T00:30:14.041Z,16.58
2022-10-25T00:32:41.255Z,16.85
2022-10-25T00:35:08.633Z,19.10
2022-10-25T00:37:37.032Z,18.67
2022-10-25T00:40:04.833Z,18.08
2022-10-25T00:42:32.004Z,17.00
2022-10-25T00:45:01.617Z,13.75
2022-10-25T00:47:39.114Z,15.18
2022-10-25T00:50:17.493Z,12.55
2022-10-25T00:52:45.031Z,12.18
2022-10-25T00:55:12.174Z,14.60
2022-10-25T00:57:44.172Z,12.68
2022-10-25T01:00:11.791Z,14.05
2022-10-25T01:02:39.017Z,13.40
2022-10-25T01:05:06.475Z,12.52
2022-10-25T01:07:33.667Z,11.73
2022-10-25T01:10:00.807Z,10.63
2022-10-25T01:12:27.992Z,8.73
2022-10-25T01:14:55.163Z,7.45
2022-10-25T01:17:34.474Z,7.68
2022-10-25T01:20:16.967Z,7.82
2022-10-25T01:22:50.287Z,7.60
2022-10-25T01:25:36.263Z,9.48
2022-10-25T01:28:32.804Z,11.70
2022-10-25T01:31:15.310Z,11.68
2022-10-25T01:33:58.902Z,10.07
2022-10-25T01:36:31.067Z,10.82
2022-10-25T01:39:02.119Z,12.15
2022-10-25T01:41:32.437Z,13.23
2022-10-25T01:44:03.847Z,10.88
2022-10-25T01:46:33.094Z,11.00
2022-10-25T01:49:02.098Z,17.77
2022-10-25T01:51:29.258Z,16.00
2022-10-25T01:53:56.499Z,13.40
2022-10-25T01:56:26.638Z,10.55
2022-10-25T01:59:02.794Z,12.55
2022-10-25T02:01:48.389Z,13.98
2022-10-25T02:04:38.837Z,13.45
2022-10-25T02:07:11.611Z,12.07
2022-10-25T02:09:57.629Z,13.40
2022-10-25T02:12:34.797Z,12.88
2022-10-25T02:15:13.240Z,10.63
2022-10-25T02:17:45.723Z,20.35
2022-10-25T02:20:12.893Z,29.05
2022-10-25T02:22:40.258Z,34.10
2022-10-25T02:25:07.646Z,36.85
2022-10-25T02:27:34.802Z,27.65
2022-10-25T02:30:01.986Z,28.67
2022-10-25T02:32:29.122Z,31.00
2022-10-25T02:34:56.247Z,27.20
2022-10-25T02:37:23.468Z,30.80
2022-10-25T02:39:50.673Z,29.05
2022-10-25T02:42:17.823Z,25.35
2022-10-25T02:44:45.033Z,26.67
2022-10-25T02:47:12.226Z,29.35
2022-10-25T02:49:39.384Z,28.17
2022-10-25T02:52:06.551Z,23.98
2022-10-25T02:54:33.693Z,20.15
2022-10-25T02:57:00.825Z,25.73
2022-10-25T02:59:29.665Z,29.30
2022-10-25T03:01:56.991Z,26.77
2022-10-25T03:04:24.276Z,15.82
2022-10-25T03:06:51.460Z,12.82
2022-10-25T03:09:18.616Z,11.75
2022-10-25T03:11:45.763Z,9.55
2022-10-25T03:14:12.931Z,8.82
2022-10-25T03:16:40.202Z,10.40
2022-10-25T03:19:07.413Z,10.48
2022-10-25T03:21:37.517Z,26.08
2022-10-25T03:24:07.596Z,19.35
2022-10-25T03:26:34.782Z,15.40
2022-10-25T03:29:01.951Z,16.25
2022-10-25T03:31:29.148Z,20.05
2022-10-25T03:33:56.338Z,16.33
2022-10-25T03:36:23.500Z,16.00
2022-10-25T03:38:50.633Z,15.07
2022-10-25T03:41:17.806Z,15.52
2022-10-25T03:43:44.978Z,11.55
2022-10-25T03:46:12.209Z,12.68
2022-10-25T03:48:39.422Z,16.55
2022-10-25T03:51:06.630Z,19.90
2022-10-25T03:53:33.824Z,15.93
2022-10-25T03:56:01.007Z,18.48
2022-10-25T03:58:28.157Z,20.20
2022-10-25T04:00:55.423Z,20.85
2022-10-25T04:03:22.700Z,21.13
2022-10-25T04:05:49.835Z,19.25
2022-10-25T04:08:16.971Z,18.95
2022-10-25T04:10:44.148Z,19.17
2022-10-25T04:13:11.292Z,21.90
2022-10-25T04:15:38.866Z,21.70
2022-10-25T04:18:06.163Z,22.77
2022-10-25T04:20:33.370Z,23.73
2022-10-25T04:23:00.503Z,24.60
2022-10-25T04:25:28.011Z,23.17
2022-10-25T04:27:55.322Z,31.58
2022-10-25T04:30:22.530Z,23.42
2022-10-25T04:32:50.200Z,22.83
2022-10-25T04:35:17.832Z,22.65
2022-10-25T04:37:45.003Z,25.15
2022-10-25T04:40:12.385Z,29.77
2022-10-25T04:42:39.538Z,64.78
2022-10-25T04:45:06.852Z,86.90
2022-10-25T04:47:34.070Z,74.85
2022-10-25T04:50:01.260Z,69.70
2022-10-25T04:52:31.256Z,61.03
2022-10-25T04:54:58.579Z,57.97
2022-10-25T04:57:26.027Z,58.08
2022-10-25T04:59:53.207Z,58.75
2022-10-25T05:02:20.432Z,64.32
2022-10-25T05:04:47.564Z,65.60
2022-10-25T05:07:14.735Z,62.85
2022-10-25T05:09:45.187Z,57.58
2022-10-25T05:12:14.732Z,53.25
2022-10-25T05:14:41.879Z,52.63
2022-10-25T05:17:09.027Z,49.63
2022-10-25T05:19:36.213Z,59.60
2022-10-25T05:22:03.360Z,59.38
2022-10-25T05:24:30.568Z,58.58
2022-10-25T05:26:57.727Z,58.90
2022-10-25T05:29:24.935Z,57.80
2022-10-25T05:31:52.111Z,54.58
2022-10-25T05:34:19.260Z,49.60
2022-10-25T05:36:46.427Z,55.42
2022-10-25T05:39:13.678Z,54.70
2022-10-25T05:41:40.856Z,69.15
2022-10-25T05:44:08.045Z,55.17
2022-10-25T05:46:35.375Z,51.25
2022-10-25T05:49:02.514Z,80.13
2022-10-25T05:51:37.635Z,89.45
2022-10-25T05:54:05.763Z,86.00
2022-10-25T05:56:33.239Z,77.47
2022-10-25T05:59:10.108Z,69.07
2022-10-25T06:01:37.916Z,64.03
2022-10-25T06:04:05.200Z,52.20
2022-10-25T06:06:32.442Z,53.38
2022-10-25T06:09:00.439Z,50.58
2022-10-25T06:11:27.933Z,50.95
2022-10-25T06:13:55.239Z,51.83
2022-10-25T06:16:22.521Z,51.92
2022-10-25T06:18:49.662Z,51.00
2022-10-25T06:21:17.914Z,49.20
2022-10-25T06:23:45.182Z,44.97
2022-10-25T06:26:13.271Z,42.50
2022-10-25T06:28:40.527Z,36.70
2022-10-25T06:31:09.239Z,31.75
2022-10-25T06:33:36.381Z,34.15
2022-10-25T06:36:03.840Z,39.72
2022-10-25T06:38:31.048Z,53.00
2022-10-25T06:41:04.870Z,44.25
2022-10-25T06:43:33.022Z,43.08
2022-10-25T06:46:00.160Z,40.67
2022-10-25T06:48:27.339Z,34.88
2022-10-25T06:51:04.222Z,35.13
2022-10-25T06:53:31.576Z,36.90
2022-10-25T06:56:04.664Z,41.55
2022-10-25T06:58:32.871Z,39.22
2022-10-25T07:01:03.465Z,39.85
2022-10-25T07:03:34.906Z,38.80
2022-10-25T07:06:02.856Z,36.38
2022-10-25T07:08:30.038Z,38.15
2022-10-25T07:10:57.338Z,36.38
2022-10-25T07:13:24.585Z,36.03
2022-10-25T07:15:51.765Z,43.55
2022-10-25T07:18:19.275Z,47.95
2022-10-25T07:20:48.597Z,39.13
2022-10-25T07:23:16.533Z,44.78
2022-10-25T07:25:44.047Z,46.00
2022-10-25T07:28:12.230Z,45.55
2022-10-25T07:30:44.268Z,12.98
2022-10-25T07:33:11.404Z,13.20
2022-10-25T07:35:46.891Z,8.35
2022-10-25T07:38:27.880Z,7.80
2022-10-25T07:40:58.442Z,7.47
2022-10-25T07:43:26.334Z,5.82
2022-10-25T07:45:53.639Z,4.65
2022-10-25T07:48:20.812Z,5.70
2022-10-25T07:50:48.013Z,4.18
2022-10-25T07:53:15.248Z,3.88
2022-10-25T07:55:42.397Z,4.65
2022-10-25T07:58:10.611Z,3.53
2022-10-25T08:00:37.918Z,6.95
2022-10-25T08:03:05.218Z,11.10
2022-10-25T08:05:32.435Z,7.55
2022-10-25T08:07:59.572Z,7.22
2022-10-25T08:10:26.776Z,6.63
2022-10-25T08:12:55.622Z,7.47
2022-10-25T08:15:22.790Z,9.68
2022-10-25T08:17:50.513Z,14.02
2022-10-25T08:20:17.990Z,9.70
2022-10-25T08:22:45.139Z,5.40
2022-10-25T08:25:12.282Z,4.47
2022-10-25T08:27:41.672Z,4.28
2022-10-25T08:30:09.127Z,3.30
2022-10-25T08:32:39.123Z,3.22
2022-10-25T08:35:06.419Z,2.78
2022-10-25T08:37:33.561Z,2.75
2022-10-25T08:40:00.781Z,3.30
2022-10-25T08:42:43.058Z,2.83
2022-10-25T08:45:12.068Z,2.67
2022-10-25T08:47:39.485Z,2.40
2022-10-25T08:50:07.557Z,2.65
2022-10-25T08:52:48.196Z,2.88
2022-10-25T08:55:16.865Z,2.90
2022-10-25T08:57:46.879Z,4.30
2022-10-25T09:00:19.575Z,3.50
2022-10-25T09:02:52.569Z,3.20
2022-10-25T09:05:35.416Z,2.60
2022-10-25T09:08:16.465Z,3.00
2022-10-25T09:10:49.431Z,2.80
2022-10-25T09:13:16.554Z,2.72
2022-10-25T09:15:46.726Z,2.65
2022-10-25T09:18:17.137Z,2.65
2022-10-25T09:20:53.202Z,2.35
2022-10-25T09:23:23.140Z,2.80
2022-10-25T09:25:50.271Z,2.17
2022-10-25T09:28:17.896Z,2.20
2022-10-25T09:30:46.219Z,12.32
2022-10-25T09:33:14.362Z,3.08
2022-10-25T09:35:41.511Z,2.58
2022-10-25T09:38:08.703Z,2.20
2022-10-25T09:40:45.198Z,2.17
2022-10-25T09:43:17.765Z,2.10
2022-10-25T09:45:46.302Z,2.60
2022-10-25T09:48:28.795Z,2.10
2022-10-25T09:51:04.113Z,2.38
2022-10-25T09:53:31.499Z,2.47
2022-10-25T09:56:02.378Z,2.53
2022-10-25T09:58:30.539Z,2.50
2022-10-25T10:00:58.324Z,3.35
2022-10-25T10:03:29.027Z,2.30
2022-10-25T10:05:57.578Z,2.47
2022-10-25T10:08:25.186Z,2.45
2022-10-25T10:10:52.469Z,2.53
2022-10-25T10:13:37.158Z,2.28
2022-10-25T10:16:12.997Z,2.60
2022-10-25T10:18:41.251Z,2.25
2022-10-25T10:21:11.418Z,2.50
2022-10-25T10:23:48.031Z,2.25
2022-10-25T10:26:25.472Z,2.30
2022-10-25T10:28:53.376Z,2.65
2022-10-25T10:31:20.523Z,2.33
2022-10-25T10:33:48.186Z,2.53
2022-10-25T10:36:28.493Z,2.35
2022-10-25T10:38:55.727Z,2.35
2022-10-25T10:41:26.828Z,2.40
2022-10-25T10:44:07.982Z,2.53
2022-10-25T10:46:35.203Z,2.75
2022-10-25T10:49:02.357Z,2.35
2022-10-25T10:51:43.956Z,2.47
2022-10-25T10:54:14.736Z,2.28
2022-10-25T10:56:41.926Z,2.42
2022-10-25T10:59:24.642Z,2.30
2022-10-25T11:01:51.881Z,2.30
2022-10-25T11:04:20.201Z,2.47
2022-10-25T11:06:48.138Z,1.83
2022-10-25T11:09:17.892Z,2.10
2022-10-25T11:11:45.322Z,2.72
2022-10-25T11:14:16.501Z,2.35
2022-10-25T11:16:43.671Z,1.80
2022-10-25T11:19:17.138Z,2.50
2022-10-25T11:21:44.363Z,1.88
2022-10-25T11:24:30.551Z,2.08
2022-10-25T11:27:05.149Z,2.20
2022-10-25T11:29:41.886Z,2.10
2022-10-25T11:32:09.062Z,2.03
2022-10-25T11:34:39.336Z,1.80
2022-10-25T11:37:08.012Z,2.00
2022-10-25T11:39:48.078Z,1.83
2022-10-25T11:42:18.817Z,1.98
2022-10-25T11:44:52.213Z,1.80
2022-10-25T11:47:24.540Z,1.90
2022-10-25T11:49:56.721Z,2.35
2022-10-25T11:52:39.258Z,2.22
2022-10-25T11:55:06.396Z,2.03
2022-10-25T11:57:33.547Z,2.38
2022-10-25T12:00:14.695Z,2.50
2022-10-25T12:02:45.200Z,2.28
2022-10-25T12:05:12.693Z,2.10
2022-10-25T12:07:42.896Z,1.90
2022-10-25T12:10:15.186Z,2.72
2022-10-25T12:12:50.444Z,2.35
2022-10-25T12:15:22.156Z,1.73
2022-10-25T12:17:49.478Z,2.10
2022-10-25T12:20:18.881Z,1.90
2022-10-25T12:22:46.630Z,1.80
2022-10-25T12:25:30.387Z,1.67
2022-10-25T12:28:05.159Z,1.70
2022-10-25T12:30:32.333Z,1.98
2022-10-25T12:33:03.489Z,1.90
2022-10-25T12:35:32.320Z,1.70
2022-10-25T12:38:22.830Z,1.85
2022-10-25T12:40:50.042Z,1.70
2022-10-25T12:43:19.851Z,2.00
2022-10-25T12:46:05.838Z,2.00
2022-10-25T12:48:45.323Z,1.98
2022-10-25T12:51:32.956Z,1.85
2022-10-25T12:54:00.091Z,2.30
2022-10-25T12:56:37.106Z,2.45
2022-10-25T12:59:09.209Z,2.35
2022-10-25T13:01:45.602Z,2.20
2022-10-25T13:04:31.594Z,2.30
2022-10-25T13:06:58.770Z,2.22
2022-10-25T13:09:27.368Z,3.00
2022-10-25T13:11:59.637Z,2.58
2022-10-25T13:14:28.230Z,2.20
2022-10-25T13:17:14.104Z,2.40
2022-10-25T13:19:56.459Z,2.70
2022-10-25T13:22:39.065Z,2.20
2022-10-25T13:25:16.671Z,2.63
2022-10-25T13:28:04.081Z,2.28
2022-10-25T13:30:32.275Z,2.67
2022-10-25T13:33:23.999Z,2.65
2022-10-25T13:35:51.323Z,2.17
2022-10-25T13:38:22.429Z,2.65
2022-10-25T13:41:05.527Z,2.40
2022-10-25T13:43:32.680Z,2.40
2022-10-25T13:45:59.841Z,2.10
2022-10-25T13:48:30.789Z,2.97
2022-10-25T13:51:10.175Z,2.78
2022-10-25T13:53:39.118Z,2.45
2022-10-25T13:56:06.358Z,2.60
2022-10-25T13:58:33.890Z,2.15
2022-10-25T14:01:16.449Z,2.28
2022-10-25T14:03:58.958Z,2.13
2022-10-25T14:06:27.301Z,2.08
2022-10-25T14:08:56.833Z,2.13
2022-10-25T14:11:33.239Z,2.50
2022-10-25T14:14:03.262Z,2.67
2022-10-25T14:16:33.639Z,4.00
2022-10-25T14:19:04.308Z,4.00
2022-10-25T14:21:31.458Z,3.90
2022-10-25T14:23:58.643Z,4.03
2022-10-25T14:26:25.813Z,3.88
2022-10-25T14:28:52.947Z,3.00
2022-10-25T14:31:22.967Z,3.40
2022-10-25T14:33:53.778Z,4.22
2022-10-25T14:36:41.663Z,4.25
2022-10-25T14:39:18.674Z,3.65
2022-10-25T14:41:55.523Z,3.78
2022-10-25T14:44:32.610Z,3.92
2022-10-25T14:47:00.195Z,3.55
2022-10-25T14:49:27.597Z,4.00
2022-10-25T14:51:56.141Z,4.07
2022-10-25T14:54:24.414Z,3.85
2022-10-25T14:56:52.107Z,5.65
2022-10-25T14:59:32.398Z,7.90
2022-10-25T15:02:00.421Z,4.97
2022-10-25T15:04:28.538Z,5.10
2022-10-25T15:06:55.840Z,5.05
2022-10-25T15:09:42.651Z,4.38
2022-10-25T15:12:13.292Z,5.55
2022-10-25T15:14:40.447Z,4.18
2022-10-25T15:17:15.735Z,2.90
2022-10-25T15:19:59.518Z,7.63
2022-10-25T15:22:34.283Z,4.47
2022-10-25T15:25:01.472Z,4.65
2022-10-25T15:27:32.677Z,4.63
2022-10-25T15:29:59.861Z,5.35
2022-10-25T15:32:27.648Z,4.35
2022-10-25T15:35:01.030Z,4.20
2022-10-25T15:37:28.471Z,5.07
2022-10-25T15:39:55.935Z,5.22
2022-10-25T15:42:26.823Z,5.07
2022-10-25T15:44:54.015Z,7.38
2022-10-25T15:47:23.274Z,9.18
2022-10-25T15:49:53.598Z,9.10
2022-10-25T15:52:20.866Z,12.95
2022-10-25T15:54:49.290Z,10.23
2022-10-25T15:57:16.932Z,10.15
2022-10-25T15:59:44.203Z,11.50
2022-10-25T16:02:21.464Z,9.40
2022-10-25T16:04:48.795Z,5.45
2022-10-25T16:07:16.166Z,6.05
2022-10-25T16:09:43.418Z,7.80
2022-10-25T16:12:11.443Z,15.88
2022-10-25T16:14:38.707Z,26.33
2022-10-25T16:17:05.896Z,20.20
2022-10-25T16:19:33.242Z,14.85
2022-10-25T16:22:00.450Z,14.07
2022-10-25T16:24:27.620Z,12.48
2022-10-25T16:26:54.759Z,15.45
2022-10-25T16:29:25.300Z,20.75
2022-10-25T16:31:52.664Z,26.00
2022-10-25T16:34:19.899Z,25.13
2022-10-25T16:36:47.382Z,23.55
2022-10-25T16:39:14.663Z,20.88
2022-10-25T16:41:42.934Z,19.10
2022-10-25T16:44:13.548Z,12.68
2022-10-25T16:46:40.784Z,11.18
2022-10-25T16:49:09.495Z,10.13
2022-10-25T16:51:36.816Z,23.25
2022-10-25T16:54:04.077Z,14.85
2022-10-25T16:56:31.235Z,8.65
2022-10-25T16:58:58.378Z,8.93
2022-10-25T17:01:29.263Z,8.68
2022-10-25T17:03:56.494Z,9.20
2022-10-25T17:09:11.258Z,8.23
2022-10-25T17:11:38.477Z,11.15
2022-10-25T17:14:05.910Z,9.90
2022-10-25T17:16:33.422Z,11.05
2022-10-25T17:19:00.754Z,15.00
2022-10-25T17:21:28.644Z,13.88
2022-10-25T17:23:56.319Z,11.00
2022-10-25T17:26:23.488Z,11.38
2022-10-25T17:28:50.625Z,11.38
2022-10-25T17:31:17.809Z,9.48
2022-10-25T17:33:44.978Z,24.33
2022-10-25T17:36:13.068Z,15.52
2022-10-25T17:38:40.513Z,11.65
2022-10-25T17:41:07.712Z,10.30
2022-10-25T17:43:35.731Z,9.57
2022-10-25T17:46:03.468Z,13.30
2022-10-25T17:48:30.834Z,9.32
2022-10-25T17:51:01.477Z,8.55
2022-10-25T17:53:28.732Z,6.82
2022-10-25T17:55:55.898Z,6.43
2022-10-25T17:58:23.154Z,6.88
2022-10-25T18:00:50.473Z,8.48
2022-10-25T18:03:17.634Z,18.27
2022-10-25T18:05:44.747Z,12.68
2022-10-25T18:08:11.919Z,11.80
2022-10-25T18:10:39.079Z,12.63
2022-10-25T18:13:06.253Z,12.60
2022-10-25T18:15:35.762Z,13.77
2022-10-25T18:18:03.088Z,12.15
2022-10-25T18:20:30.206Z,10.38
2022-10-25T18:22:57.873Z,12.38
2022-10-25T18:25:25.006Z,6.85
2022-10-25T18:27:52.128Z,8.18
2022-10-25T18:30:19.347Z,8.25
2022-10-25T18:32:46.535Z,11.73
2022-10-25T18:35:13.698Z,23.05
2022-10-25T18:37:40.881Z,19.35
2022-10-25T18:40:08.657Z,21.80
2022-10-25T18:42:36.517Z,28.02
2022-10-25T18:45:03.874Z,36.28
2022-10-25T18:47:30.999Z,62.65
2022-10-25T18:49:58.200Z,36.08
2022-10-25T18:52:26.432Z,33.80
2022-10-25T18:54:53.565Z,31.23
2022-10-25T18:57:20.701Z,30.92
2022-10-25T18:59:47.849Z,30.75
2022-10-25T19:02:15.104Z,27.02
2022-10-25T19:04:42.403Z,29.00
2022-10-25T19:07:09.554Z,31.23
2022-10-25T19:09:36.670Z,35.55
2022-10-25T19:12:03.847Z,37.45
2022-10-25T19:14:31.013Z,37.80
2022-10-25T19:16:58.127Z,36.53
2022-10-25T19:19:25.258Z,35.40
2022-10-25T19:21:52.480Z,38.38
2022-10-25T19:24:19.601Z,38.70
2022-10-25T19:26:46.746Z,36.17
2022-10-25T19:29:13.913Z,34.75
2022-10-25T19:31:41.062Z,30.67
2022-10-25T19:34:08.250Z,28.52
2022-10-25T19:36:35.475Z,23.88
2022-10-25T19:39:03.621Z,25.63
2022-10-25T19:41:30.930Z,24.90
2022-10-25T19:43:58.661Z,26.00
2022-10-25T19:46:26.188Z,24.98
2022-10-25T19:48:53.376Z,23.95
2022-10-25T19:51:20.742Z,18.95
2022-10-25T19:53:47.916Z,18.80
2022-10-25T19:56:15.999Z,19.65
2022-10-25T19:58:43.252Z,21.23
2022-10-25T20:01:16.665Z,27.55
2022-10-25T20:03:44.092Z,30.42
2022-10-25T20:06:12.343Z,41.75
2022-10-25T20:08:39.925Z,55.10
2022-10-25T20:11:07.475Z,46.90
2022-10-25T20:13:34.655Z,59.60
2022-10-25T20:16:01.872Z,53.13
2022-10-25T20:18:35.870Z,41.10
2022-10-25T20:21:03.976Z,41.45
2022-10-25T20:23:31.605Z,43.20
2022-10-25T20:25:58.806Z,41.38
2022-10-25T20:28:26.004Z,42.40
2022-10-25T20:30:53.157Z,45.97
2022-10-25T20:33:21.156Z,48.03
2022-10-25T20:35:48.324Z,52.67
2022-10-25T20:38:16.664Z,43.95
2022-10-25T20:40:45.276Z,48.08
2022-10-25T20:43:12.436Z,43.90
2022-10-25T20:45:41.411Z,48.72
2022-10-25T20:48:10.163Z,44.53
2022-10-25T20:50:37.293Z,41.30
2022-10-25T20:53:11.573Z,43.38
2022-10-25T20:55:38.923Z,40.88
2022-10-25T20:58:06.147Z,40.63
2022-10-25T21:00:33.324Z,35.80
2022-10-25T21:03:00.639Z,40.80
2022-10-25T21:05:27.855Z,38.35
2022-10-25T21:07:55.006Z,42.88
2022-10-25T21:10:22.200Z,47.55
2022-10-25T21:12:49.340Z,64.53
2022-10-25T21:15:16.548Z,56.42
2022-10-25T21:17:46.623Z,55.50
2022-10-25T21:20:13.903Z,51.70
2022-10-25T21:22:42.461Z,44.42
2022-10-25T21:25:09.924Z,36.53
2022-10-25T21:27:37.082Z,30.42
2022-10-25T21:30:04.599Z,28.55
2022-10-25T21:32:31.801Z,25.95
2022-10-25T21:34:58.934Z,26.13
2022-10-25T21:37:26.114Z,25.35
2022-10-25T21:39:53.289Z,22.05
2022-10-25T21:42:20.459Z,19.70
2022-10-25T21:44:47.600Z,17.35
2022-10-25T21:47:14.792Z,19.40
2022-10-25T21:49:41.925Z,19.08
2022-10-25T21:52:09.087Z,18.05
2022-10-25T21:54:36.260Z,15.23
2022-10-25T21:57:03.419Z,15.27
2022-10-25T21:59:30.607Z,14.77
2022-10-25T22:01:58.000Z,17.13
2022-10-25T22:04:27.715Z,19.25
2022-10-25T22:06:55.046Z,17.40
2022-10-25T22:09:22.209Z,14.82
2022-10-25T22:11:52.593Z,14.48
2022-10-25T22:14:19.777Z,11.65
2022-10-25T22:16:46.951Z,9.68
2022-10-25T22:19:15.410Z,12.13
2022-10-25T22:21:42.680Z,12.18
2022-10-25T22:24:10.330Z,14.40
2022-10-25T22:26:37.703Z,14.70
2022-10-25T22:29:04.902Z,15.70
2022-10-25T22:31:32.150Z,16.77
2022-10-25T22:34:00.109Z,14.55
2022-10-25T22:36:28.486Z,14.38
2022-10-25T22:38:55.807Z,13.05
2022-10-25T22:41:23.837Z,13.07
2022-10-25T22:43:51.179Z,13.60
2022-10-25T22:46:23.733Z,11.45
2022-10-25T22:48:50.987Z,12.07
2022-10-25T22:51:18.224Z,11.68
2022-10-25T22:53:45.431Z,11.55
2022-10-25T22:56:12.573Z,11.63
2022-10-25T22:58:39.893Z,11.20
2022-10-25T23:01:08.054Z,11.27
2022-10-25T23:03:56.892Z,9.60
2022-10-25T23:06:27.786Z,9.60
2022-10-25T23:08:58.738Z,8.38
2022-10-25T23:11:26.958Z,8.82
2022-10-25T23:13:54.143Z,8.57
2022-10-25T23:16:21.405Z,8.35
2022-10-25T23:18:48.541Z,9.77
2022-10-25T23:21:25.514Z,9.00
2022-10-25T23:23:52.955Z,8.02
2022-10-25T23:26:33.198Z,8.45
2022-10-25T23:29:01.795Z,8.25
2022-10-25T23:31:29.796Z,9.52
2022-10-25T23:33:57.776Z,9.52
2022-10-25T23:36:25.869Z,9.48
2022-10-25T23:38:53.203Z,9.13
2022-10-25T23:41:20.487Z,8.95
2022-10-25T23:43:47.780Z,8.45
2022-10-25T23:46:14.963Z,8.25
2022-10-25T23:48:42.206Z,20.60
2022-10-25T23:51:13.128Z,17.02
2022-10-25T23:53:40.274Z,15.90
2022-10-25T23:56:08.138Z,13.80
2022-10-25T23:58:35.321Z,10.02
